createdAt,value
2022-10-24T00:01:19.914Z,62.50
2022-10-24T00:03:47.439Z,62.20
2022-10-24T00:06:14.293Z,60.00
2022-10-24T00:08:43.473Z,62.70
2022-10-24T00:11:27.376Z,62.40
2022-10-24T00:13:57.095Z,60.90
2022-10-24T00:16:24.220Z,61.90
2022-10-24T00:18:51.103Z,61.90
2022-10-24T00:21:17.893Z,62.10
2022-10-24T00:23:45.507Z,61.90
2022-10-24T00:26:13.817Z,62.30
2022-10-24T00:28:41.692Z,62.10
2022-10-24T00:31:14.483Z,62.20
2022-10-24T00:33:43.174Z,62.30
2022-10-24T00:36:18.274Z,62.20
2022-10-24T00:38:45.352Z,62.10
2022-10-24T00:41:20.049Z,63.10
2022-10-24T00:43:47.312Z,63.50
2022-10-24T00:46:16.610Z,64.30
2022-10-24T00:48:51.881Z,65.10
2022-10-24T00:51:26.857Z,66.20
2022-10-24T00:53:59.346Z,67.10
2022-10-24T00:56:34.335Z,68.30
2022-10-24T00:59:05.045Z,69.40
2022-10-24T01:01:33.966Z,70.30
2022-10-24T01:04:01.703Z,71.10
2022-10-24T01:06:51.083Z,72.00
2022-10-24T01:09:55.287Z,72.80
2022-10-24T01:12:22.023Z,73.70
2022-10-24T01:15:06.779Z,74.50
2022-10-24T01:18:02.134Z,75.30
2022-10-24T01:20:44.991Z,75.70
2022-10-24T01:23:27.598Z,77.20
2022-10-24T01:26:40.302Z,77.40
2022-10-24T01:29:33.412Z,78.10
2022-10-24T01:32:30.944Z,78.50
2022-10-24T01:35:40.843Z,78.10
2022-10-24T01:38:24.204Z,79.10
2022-10-24T01:41:29.114Z,79.50
2022-10-24T01:44:24.002Z,80.00
2022-10-24T01:47:05.026Z,79.90
2022-10-24T01:49:37.568Z,80.50
2022-10-24T01:54:46.398Z,81.20
2022-10-24T01:57:15.398Z,81.30
2022-10-24T01:59:48.684Z,81.50
2022-10-24T02:02:27.117Z,81.40
2022-10-24T02:05:31.852Z,81.60
2022-10-24T02:08:08.222Z,81.50
2022-10-24T02:10:45.967Z,82.20
2022-10-24T02:13:24.157Z,82.50
2022-10-24T02:15:55.791Z,82.50
2022-10-24T02:18:23.181Z,82.80
2022-10-24T02:21:09.328Z,83.10
2022-10-24T02:23:54.821Z,81.80
2022-10-24T02:26:52.259Z,82.10
2022-10-24T02:29:27.826Z,82.50
2022-10-24T02:31:58.515Z,83.70
2022-10-24T02:34:36.860Z,83.80
2022-10-24T02:37:07.452Z,83.70
2022-10-24T02:39:36.170Z,84.10
2022-10-24T02:42:05.427Z,84.00
2022-10-24T02:44:34.708Z,83.90
2022-10-24T02:47:06.645Z,83.90
2022-10-24T02:49:33.527Z,83.80
2022-10-24T02:52:01.744Z,84.10
2022-10-24T02:54:28.605Z,84.10
2022-10-24T02:57:01.274Z,84.20
2022-10-24T02:59:28.733Z,83.80
2022-10-24T03:01:56.838Z,84.30
2022-10-24T03:04:23.952Z,84.40
2022-10-24T03:06:50.985Z,85.10
2022-10-24T03:09:17.798Z,84.70
2022-10-24T03:11:44.605Z,85.00
2022-10-24T03:14:11.441Z,85.10
2022-10-24T03:16:38.222Z,85.20
2022-10-24T03:19:05.072Z,85.10
2022-10-24T03:21:32.417Z,85.10
2022-10-24T03:23:59.408Z,85.10
2022-10-24T03:26:26.317Z,85.20
2022-10-24T03:28:53.114Z,85.00
2022-10-24T03:31:19.972Z,85.10
2022-10-24T03:33:46.819Z,85.20
2022-10-24T03:36:13.677Z,85.80
2022-10-24T03:38:40.533Z,85.30
2022-10-24T03:41:07.342Z,85.30
2022-10-24T03:43:34.104Z,85.70
2022-10-24T03:46:00.949Z,85.30
2022-10-24T03:48:28.202Z,85.30
2022-10-24T03:50:55.492Z,85.60
2022-10-24T03:53:22.399Z,85.30
2022-10-24T03:55:49.169Z,85.40
2022-10-24T03:58:16.338Z,85.50
2022-10-24T04:00:43.292Z,85.40
2022-10-24T04:03:10.780Z,85.40
2022-10-24T04:08:09.575Z,85.50
2022-10-24T04:10:36.791Z,85.50
2022-10-24T04:13:04.165Z,85.40
2022-10-24T04:15:31.238Z,85.40
2022-10-24T04:17:58.122Z,85.50
2022-10-24T04:20:25.096Z,85.60
2022-10-24T04:22:51.990Z,85.60
2022-10-24T04:25:19.732Z,85.60
2022-10-24T04:27:46.701Z,85.60
2022-10-24T04:30:16.683Z,85.70
2022-10-24T04:32:45.034Z,85.80
2022-10-24T04:35:12.449Z,85.60
2022-10-24T04:37:39.384Z,85.40
2022-10-24T04:40:07.176Z,85.60
2022-10-24T04:42:34.123Z,85.10
2022-10-24T04:45:00.949Z,85.10
2022-10-24T04:47:28.408Z,85.20
2022-10-24T04:49:55.328Z,85.20
2022-10-24T04:52:22.115Z,85.30
2022-10-24T04:54:48.923Z,85.40
2022-10-24T04:57:15.776Z,85.60
2022-10-24T04:59:42.618Z,85.70
2022-10-24T05:02:09.539Z,85.80
2022-10-24T05:04:36.357Z,85.90
2022-10-24T05:07:03.478Z,85.90
2022-10-24T05:09:30.334Z,85.90
2022-10-24T05:11:58.250Z,85.80
2022-10-24T05:14:25.640Z,85.80
2022-10-24T05:16:52.567Z,85.70
2022-10-24T05:19:19.870Z,85.70
2022-10-24T05:21:46.813Z,85.80
2022-10-24T05:24:13.833Z,86.10
2022-10-24T05:26:40.584Z,86.20
2022-10-24T05:31:39.173Z,86.40
2022-10-24T05:34:05.993Z,86.60
2022-10-24T05:36:32.910Z,86.80
2022-10-24T05:38:59.695Z,86.90
2022-10-24T05:41:26.528Z,87.10
2022-10-24T05:43:53.294Z,87.10
2022-10-24T05:46:20.211Z,87.40
2022-10-24T05:48:47.150Z,87.70
2022-10-24T05:51:13.921Z,87.80
2022-10-24T05:53:40.831Z,87.50
2022-10-24T05:56:07.817Z,87.20
2022-10-24T05:58:34.643Z,87.30
2022-10-24T06:01:02.012Z,87.10
2022-10-24T06:03:28.952Z,87.10
2022-10-24T06:05:55.819Z,87.30
2022-10-24T06:08:22.779Z,87.20
2022-10-24T06:10:51.362Z,86.80
2022-10-24T06:13:18.508Z,86.80
2022-10-24T06:15:45.880Z,86.70
2022-10-24T06:18:12.703Z,86.50
2022-10-24T06:20:39.580Z,86.60
2022-10-24T06:23:06.397Z,86.50
2022-10-24T06:25:33.255Z,86.60
2022-10-24T06:28:00.392Z,86.80
2022-10-24T06:30:27.752Z,86.70
2022-10-24T06:32:54.657Z,86.80
2022-10-24T06:35:21.493Z,86.70
2022-10-24T06:37:48.707Z,86.70
2022-10-24T06:40:17.318Z,86.70
2022-10-24T06:42:45.186Z,86.50
2022-10-24T06:45:13.049Z,86.30
2022-10-24T06:47:39.944Z,86.50
2022-10-24T06:50:07.877Z,86.70
2022-10-24T06:52:36.396Z,86.80
2022-10-24T06:55:03.937Z,86.90
2022-10-24T06:57:30.691Z,87.20
2022-10-24T06:59:57.632Z,87.30
2022-10-24T07:02:24.764Z,87.30
2022-10-24T07:04:51.746Z,87.00
2022-10-24T07:07:21.840Z,86.90
2022-10-24T07:09:55.435Z,87.30
2022-10-24T07:12:24.719Z,86.20
2022-10-24T07:14:52.055Z,87.10
2022-10-24T07:17:20.755Z,87.20
2022-10-24T07:19:54.037Z,87.30
2022-10-24T07:22:21.029Z,86.30
2022-10-24T07:24:56.565Z,87.10
2022-10-24T07:27:24.600Z,86.30
2022-10-24T07:29:52.515Z,87.10
2022-10-24T07:32:21.231Z,87.00
2022-10-24T07:34:48.458Z,87.00
2022-10-24T07:37:17.334Z,87.10
2022-10-24T07:39:46.515Z,86.90
2022-10-24T07:42:15.468Z,87.10
2022-10-24T07:44:42.487Z,87.30
2022-10-24T07:47:10.127Z,87.30
2022-10-24T07:49:37.074Z,87.10
2022-10-24T07:52:05.242Z,87.00
2022-10-24T07:54:36.229Z,87.10
2022-10-24T07:57:04.970Z,87.10
2022-10-24T07:59:41.769Z,87.20
2022-10-24T08:02:12.183Z,87.30
2022-10-24T08:04:40.073Z,87.00
2022-10-24T08:07:13.081Z,87.30
2022-10-24T08:09:43.299Z,87.30
2022-10-24T08:12:10.892Z,87.40
2022-10-24T08:14:40.706Z,87.40
2022-10-24T08:17:08.356Z,87.30
2022-10-24T08:19:35.790Z,87.40
2022-10-24T08:22:03.974Z,87.60
2022-10-24T08:24:30.803Z,87.80
2022-10-24T08:26:57.614Z,88.20
2022-10-24T08:29:25.279Z,88.50
2022-10-24T08:31:54.946Z,88.70
2022-10-24T08:34:22.456Z,88.60
2022-10-24T08:36:50.771Z,89.20
2022-10-24T08:39:19.145Z,88.80
2022-10-24T08:42:00.307Z,89.00
2022-10-24T08:44:50.859Z,88.40
2022-10-24T08:47:42.126Z,88.80
2022-10-24T08:50:28.169Z,88.20
2022-10-24T08:53:00.715Z,87.90
2022-10-24T08:55:55.424Z,87.70
2022-10-24T08:58:57.042Z,86.00
2022-10-24T09:01:40.165Z,87.00
2022-10-24T09:04:13.873Z,86.60
2022-10-24T09:06:41.632Z,87.30
2022-10-24T09:09:21.226Z,87.50
2022-10-24T09:12:06.807Z,86.40
2022-10-24T09:14:38.145Z,86.30
2022-10-24T09:17:31.570Z,87.30
2022-10-24T09:20:28.896Z,86.00
2022-10-24T09:23:20.757Z,85.60
2022-10-24T09:25:56.311Z,87.50
2022-10-24T09:28:24.296Z,87.90
2022-10-24T09:30:52.552Z,88.60
2022-10-24T09:33:35.466Z,89.10
2022-10-24T09:36:05.238Z,88.00
2022-10-24T09:38:39.567Z,89.00
2022-10-24T09:41:16.891Z,89.20
2022-10-24T09:43:43.594Z,89.20
2022-10-24T09:46:19.547Z,89.00
2022-10-24T09:48:56.954Z,88.50
2022-10-24T09:51:41.100Z,88.90
2022-10-24T09:54:19.687Z,87.10
2022-10-24T09:56:55.653Z,86.40
2022-10-24T09:59:59.119Z,87.60
2022-10-24T10:02:34.379Z,86.50
2022-10-24T10:05:04.112Z,88.60
2022-10-24T10:07:35.834Z,88.00
2022-10-24T10:10:23.948Z,88.20
2022-10-24T10:13:24.603Z,87.10
2022-10-24T10:16:04.030Z,85.20
2022-10-24T10:18:46.471Z,86.00
2022-10-24T10:21:23.841Z,86.30
2022-10-24T10:23:56.892Z,86.40
2022-10-24T10:26:43.810Z,86.60
2022-10-24T10:29:24.089Z,86.60
2022-10-24T10:32:03.445Z,86.00
2022-10-24T10:34:47.013Z,87.50
2022-10-24T10:37:33.474Z,86.80
2022-10-24T10:40:42.647Z,86.90
2022-10-24T10:43:41.603Z,86.80
2022-10-24T10:46:42.444Z,86.40
2022-10-24T10:49:29.915Z,86.20
2022-10-24T10:52:33.315Z,86.80
2022-10-24T10:55:52.161Z,86.20
2022-10-24T10:58:41.419Z,86.10
2022-10-24T11:01:52.624Z,86.40
2022-10-24T11:04:39.811Z,85.90
2022-10-24T11:07:40.647Z,87.30
2022-10-24T11:10:14.270Z,85.50
2022-10-24T11:12:46.489Z,86.80
2022-10-24T11:15:37.175Z,86.40
2022-10-24T11:18:14.494Z,85.40
2022-10-24T11:20:59.864Z,86.30
2022-10-24T11:23:54.841Z,85.80
2022-10-24T11:26:53.182Z,85.40
2022-10-24T11:29:38.217Z,86.30
2022-10-24T11:32:40.898Z,86.50
2022-10-24T11:35:33.134Z,85.00
2022-10-24T11:38:12.346Z,84.70
2022-10-24T11:40:45.524Z,86.70
2022-10-24T11:43:37.694Z,87.30
2022-10-24T11:46:14.264Z,85.30
2022-10-24T11:49:02.937Z,87.00
2022-10-24T11:51:56.759Z,85.90
2022-10-24T11:54:50.973Z,85.70
2022-10-24T11:57:29.275Z,86.40
2022-10-24T11:59:58.061Z,86.70
2022-10-24T12:03:02.563Z,87.90
2022-10-24T12:05:46.295Z,86.30
2022-10-24T12:08:48.376Z,86.60
2022-10-24T12:11:30.250Z,86.10
2022-10-24T12:14:26.770Z,87.30
2022-10-24T12:17:39.038Z,86.50
2022-10-24T12:20:14.103Z,87.00
2022-10-24T12:23:02.894Z,87.70
2022-10-24T12:25:38.224Z,87.80
2022-10-24T12:28:22.524Z,87.50
2022-10-24T12:31:20.965Z,87.20
2022-10-24T12:34:15.447Z,87.30
2022-10-24T12:37:14.211Z,87.40
2022-10-24T12:39:57.604Z,86.50
2022-10-24T12:42:25.338Z,87.80
2022-10-24T12:45:32.290Z,88.50
2022-10-24T12:47:59.003Z,86.80
2022-10-24T12:50:27.493Z,88.20
2022-10-24T12:52:57.256Z,88.20
2022-10-24T12:55:39.453Z,87.90
2022-10-24T12:58:28.072Z,87.00
2022-10-24T13:00:57.815Z,86.70
2022-10-24T13:03:51.149Z,88.70
2022-10-24T13:06:46.118Z,87.40
2022-10-24T13:09:25.463Z,88.00
2022-10-24T13:11:59.303Z,88.40
2022-10-24T13:14:51.914Z,87.90
2022-10-24T13:17:47.575Z,88.80
2022-10-24T13:20:26.369Z,88.00
2022-10-24T13:23:05.355Z,88.30
2022-10-24T13:25:37.764Z,88.10
2022-10-24T13:28:19.881Z,88.60
2022-10-24T13:30:49.740Z,87.80
2022-10-24T13:33:36.513Z,89.20
2022-10-24T13:36:09.224Z,87.60
2022-10-24T13:39:02.400Z,88.80
2022-10-24T13:41:35.592Z,88.50
2022-10-24T13:44:28.366Z,88.90
2022-10-24T13:47:10.470Z,87.10
2022-10-24T13:50:01.231Z,87.30
2022-10-24T13:52:54.808Z,87.40
2022-10-24T13:55:42.980Z,88.20
2022-10-24T13:58:18.314Z,87.90
2022-10-24T14:01:00.704Z,89.20
2022-10-24T14:03:31.705Z,88.20
2022-10-24T14:06:03.437Z,89.70
2022-10-24T14:08:52.437Z,89.50
2022-10-24T14:11:29.271Z,88.50
2022-10-24T14:14:05.642Z,89.00
2022-10-24T14:16:35.824Z,88.30
2022-10-24T14:19:28.472Z,88.90
2022-10-24T14:21:57.982Z,88.00
2022-10-24T14:24:25.135Z,89.00
2022-10-24T14:26:54.176Z,88.90
2022-10-24T14:29:28.415Z,88.70
2022-10-24T14:32:07.889Z,88.20
2022-10-24T14:34:37.549Z,88.70
2022-10-24T14:37:34.920Z,88.60
2022-10-24T14:40:02.879Z,87.10
2022-10-24T14:42:31.697Z,89.00
2022-10-24T14:44:59.961Z,89.00
2022-10-24T14:47:34.080Z,89.10
2022-10-24T14:50:00.995Z,88.80
2022-10-24T14:52:38.957Z,89.20
2022-10-24T14:55:17.987Z,88.60
2022-10-24T14:57:51.169Z,89.10
2022-10-24T15:00:25.240Z,88.40
2022-10-24T15:02:57.512Z,88.00
2022-10-24T15:05:24.495Z,88.50
2022-10-24T15:08:23.454Z,88.50
2022-10-24T15:11:03.906Z,87.90
2022-10-24T15:13:33.920Z,88.70
2022-10-24T15:16:01.595Z,88.70
2022-10-24T15:18:43.627Z,88.80
2022-10-24T15:21:38.721Z,87.60
2022-10-24T15:24:06.680Z,86.30
2022-10-24T15:26:40.831Z,88.90
2022-10-24T15:29:13.780Z,88.60
2022-10-24T15:31:45.599Z,87.70
2022-10-24T15:34:22.212Z,88.10
2022-10-24T15:36:52.676Z,87.90
2022-10-24T15:39:25.424Z,88.40
2022-10-24T15:41:53.474Z,87.30
2022-10-24T15:44:27.524Z,87.90
2022-10-24T15:46:55.356Z,87.80
2022-10-24T15:49:22.751Z,87.70
2022-10-24T15:51:50.750Z,87.70
2022-10-24T15:54:20.735Z,87.60
2022-10-24T15:56:47.728Z,87.80
2022-10-24T15:59:14.798Z,88.00
2022-10-24T16:02:03.023Z,88.10
2022-10-24T16:04:32.615Z,86.00
2022-10-24T16:06:59.952Z,88.10
2022-10-24T16:09:27.850Z,88.10
2022-10-24T16:11:55.541Z,88.10
2022-10-24T16:14:26.098Z,87.90
2022-10-24T16:16:55.062Z,88.00
2022-10-24T16:19:23.169Z,87.90
2022-10-24T16:21:50.233Z,88.00
2022-10-24T16:24:18.377Z,87.80
2022-10-24T16:26:45.185Z,87.80
2022-10-24T16:29:11.996Z,87.80
2022-10-24T16:31:38.891Z,87.90
2022-10-24T16:34:07.344Z,87.90
2022-10-24T16:36:34.631Z,87.80
2022-10-24T16:39:01.425Z,87.80
2022-10-24T16:41:28.325Z,87.80
2022-10-24T16:43:57.112Z,87.80
2022-10-24T16:46:27.020Z,87.60
2022-10-24T16:48:54.962Z,87.70
2022-10-24T16:51:32.480Z,87.70
2022-10-24T16:54:01.323Z,86.70
2022-10-24T16:56:29.750Z,88.00
2022-10-24T16:58:56.904Z,87.50
2022-10-24T17:01:23.891Z,87.50
2022-10-24T17:03:51.061Z,87.80
2022-10-24T17:06:18.622Z,87.80
2022-10-24T17:08:45.821Z,87.80
2022-10-24T17:11:39.433Z,87.90
2022-10-24T17:13:59.562Z,87.90
2022-10-24T17:16:26.989Z,88.00
2022-10-24T17:19:05.546Z,88.00
2022-10-24T17:21:39.551Z,88.10
2022-10-24T17:24:12.047Z,88.00
2022-10-24T17:26:40.141Z,87.60
2022-10-24T17:29:08.418Z,88.00
2022-10-24T17:31:36.058Z,87.80
2022-10-24T17:34:03.664Z,87.80
2022-10-24T17:36:37.500Z,87.60
2022-10-24T17:39:14.311Z,87.00
2022-10-24T17:41:43.793Z,86.20
2022-10-24T17:44:17.907Z,87.20
2022-10-24T17:46:45.656Z,85.80
2022-10-24T17:49:17.853Z,87.10
2022-10-24T17:51:48.990Z,87.30
2022-10-24T17:54:16.763Z,87.20
2022-10-24T17:56:43.800Z,87.40
2022-10-24T17:59:10.861Z,87.40
2022-10-24T18:01:38.098Z,87.40
2022-10-24T18:04:05.171Z,87.50
2022-10-24T18:06:32.111Z,87.40
2022-10-24T18:08:59.070Z,87.60
2022-10-24T18:11:26.375Z,87.70
2022-10-24T18:13:53.691Z,87.40
2022-10-24T18:16:21.023Z,87.40
2022-10-24T18:18:48.359Z,87.20
2022-10-24T18:21:24.317Z,87.10
2022-10-24T18:23:53.160Z,85.70
2022-10-24T18:26:24.292Z,87.00
2022-10-24T18:28:53.996Z,86.80
2022-10-24T18:31:25.777Z,87.00
2022-10-24T18:33:53.688Z,86.70
2022-10-24T18:36:26.997Z,86.80
2022-10-24T18:38:58.347Z,85.50
2022-10-24T18:41:30.720Z,85.80
2022-10-24T18:44:01.076Z,86.60
2022-10-24T18:46:29.930Z,86.50
2022-10-24T18:48:57.093Z,86.50
2022-10-24T18:51:34.752Z,86.50
2022-10-24T18:54:09.278Z,85.00
2022-10-24T18:56:38.669Z,85.60
2022-10-24T18:59:20.133Z,86.50
2022-10-24T19:02:08.462Z,85.30
2022-10-24T19:04:42.836Z,83.40
2022-10-24T19:07:10.986Z,85.60
2022-10-24T19:09:37.957Z,86.40
2022-10-24T19:12:07.013Z,86.40
2022-10-24T19:14:34.222Z,86.40
2022-10-24T19:17:03.016Z,86.50
2022-10-24T19:19:34.992Z,86.60
2022-10-24T19:22:02.027Z,86.30
2022-10-24T19:24:28.780Z,86.60
2022-10-24T19:26:55.605Z,86.70
2022-10-24T19:29:22.387Z,86.70
2022-10-24T19:31:49.226Z,86.70
2022-10-24T19:34:16.014Z,86.50
2022-10-24T19:36:42.861Z,86.50
2022-10-24T19:39:09.761Z,86.50
2022-10-24T19:41:36.739Z,86.60
2022-10-24T19:44:05.098Z,86.50
2022-10-24T19:46:31.980Z,86.20
2022-10-24T19:48:58.856Z,86.20
2022-10-24T19:51:25.678Z,86.10
2022-10-24T19:53:52.853Z,85.90
2022-10-24T19:56:25.315Z,86.00
2022-10-24T19:58:55.004Z,85.80
2022-10-24T20:01:26.246Z,86.00
2022-10-24T20:03:55.067Z,86.00
2022-10-24T20:06:23.961Z,86.20
2022-10-24T20:08:50.902Z,86.30
2022-10-24T20:11:20.392Z,86.00
2022-10-24T20:13:50.185Z,86.00
2022-10-24T20:16:17.720Z,85.60
2022-10-24T20:18:44.918Z,85.50
2022-10-24T20:21:17.805Z,85.50
2022-10-24T20:23:47.779Z,85.30
2022-10-24T20:26:19.431Z,85.70
2022-10-24T20:28:50.883Z,85.50
2022-10-24T20:31:30.009Z,85.50
2022-10-24T20:34:05.087Z,85.70
2022-10-24T20:36:36.354Z,85.80
2022-10-24T20:39:04.970Z,85.70
2022-10-24T20:41:31.899Z,85.70
2022-10-24T20:43:58.730Z,85.70
2022-10-24T20:46:25.621Z,85.50
2022-10-24T20:48:53.490Z,85.30
2022-10-24T20:51:21.440Z,85.10
2022-10-24T20:53:49.341Z,84.80
2022-10-24T20:56:23.057Z,84.40
2022-10-24T20:58:51.566Z,84.10
2022-10-24T21:01:22.568Z,84.20
2022-10-24T21:03:51.189Z,83.80
2022-10-24T21:06:24.801Z,84.20
2022-10-24T21:08:55.360Z,83.10
2022-10-24T21:11:26.435Z,84.20
2022-10-24T21:13:56.443Z,84.20
2022-10-24T21:16:25.122Z,84.20
2022-10-24T21:18:52.678Z,84.40
2022-10-24T21:21:21.443Z,84.60
2022-10-24T21:24:02.257Z,84.40
2022-10-24T21:26:35.318Z,83.20
2022-10-24T21:29:09.396Z,84.70
2022-10-24T21:31:51.937Z,84.60
2022-10-24T21:34:19.461Z,84.40
2022-10-24T21:36:46.681Z,84.60
2022-10-24T21:39:16.108Z,84.60
2022-10-24T21:41:43.816Z,84.30
2022-10-24T21:44:10.994Z,84.70
2022-10-24T21:46:37.863Z,84.80
2022-10-24T21:49:04.732Z,84.70
2022-10-24T21:51:35.729Z,84.70
2022-10-24T21:54:15.528Z,84.50
2022-10-24T21:56:42.372Z,83.60
2022-10-24T21:59:17.405Z,84.60
2022-10-24T22:01:46.840Z,83.90
2022-10-24T22:04:15.088Z,84.50
2022-10-24T22:06:43.350Z,84.80
2022-10-24T22:09:16.320Z,84.50
2022-10-24T22:11:44.251Z,84.20
2022-10-24T22:14:14.883Z,84.70
2022-10-24T22:16:42.825Z,84.20
2022-10-24T22:19:15.081Z,84.30
2022-10-24T22:21:46.643Z,83.80
2022-10-24T22:24:18.199Z,84.00
2022-10-24T22:26:46.330Z,84.10
2022-10-24T22:29:17.814Z,84.50
2022-10-24T22:31:45.693Z,84.30
2022-10-24T22:34:26.471Z,84.30
2022-10-24T22:37:11.173Z,83.30
2022-10-24T22:39:38.991Z,81.90
2022-10-24T22:42:13.498Z,83.40
2022-10-24T22:44:44.079Z,83.00
2022-10-24T22:47:21.758Z,82.80
2022-10-24T22:50:21.499Z,82.50
2022-10-24T22:52:50.279Z,80.40
2022-10-24T22:55:45.519Z,82.40
2022-10-24T22:58:12.800Z,80.40
2022-10-24T23:00:39.961Z,82.60
2022-10-24T23:03:37.376Z,82.60
2022-10-24T23:06:25.230Z,80.20
2022-10-24T23:08:52.134Z,80.50
2022-10-24T23:11:19.559Z,82.50
2022-10-24T23:13:47.035Z,82.60
2022-10-24T23:16:42.501Z,82.50
2022-10-24T23:19:28.086Z,81.40
2022-10-24T23:22:27.902Z,81.50
2022-10-24T23:25:01.220Z,81.00
2022-10-24T23:27:41.267Z,82.10
2022-10-24T23:30:20.785Z,81.70
2022-10-24T23:32:49.927Z,81.30
2022-10-24T23:35:19.633Z,83.30
2022-10-24T23:37:50.614Z,82.80
2022-10-24T23:40:17.359Z,82.80
2022-10-24T23:42:46.165Z,83.00
2022-10-24T23:45:26.801Z,83.20
2022-10-24T23:48:24.968Z,82.70
2022-10-24T23:51:26.210Z,82.10
2022-10-24T23:53:55.749Z,83.20
2022-10-24T23:56:26.656Z,83.10
2022-10-24T23:58:53.897Z,83.20
